createdAt,value
2023-05-25T00:00:26.507Z,100107.22
2023-05-25T00:03:24.574Z,100105.56
2023-05-25T00:05:56.566Z,100118.63
2023-05-25T00:08:35.329Z,100117.78
2023-05-25T00:11:20.060Z,100117.84
2023-05-25T00:13:55.404Z,100108.50
2023-05-25T00:16:30.644Z,100120.38
2023-05-25T00:19:26.598Z,100122.91
2023-05-25T00:22:05.310Z,100106.38
2023-05-25T00:24:56.001Z,100108.97
2023-05-25T00:27:29.053Z,100102.13
2023-05-25T00:30:25.775Z,100105.63
2023-05-25T00:33:17.625Z,100093.69
2023-05-25T00:36:04.221Z,100095.34
2023-05-25T00:38:53.467Z,100100.50
2023-05-25T00:41:48.567Z,100095.50
2023-05-25T00:44:37.556Z,100106.84
2023-05-25T00:47:14.323Z,100107.66
2023-05-25T00:50:06.282Z,100112.84
2023-05-25T00:52:37.661Z,100110.47
2023-05-25T00:55:30.592Z,100109.84
2023-05-25T00:58:23.798Z,100123.78
2023-05-25T01:01:21.458Z,100124.75
2023-05-25T01:03:59.064Z,100123.06
2023-05-25T01:07:01.575Z,100120.66
2023-05-25T01:09:46.606Z,100127.47
2023-05-25T01:12:36.507Z,100124.06
2023-05-25T01:15:33.594Z,100126.72
2023-05-25T01:18:15.440Z,100124.91
2023-05-25T01:21:16.043Z,100130.91
2023-05-25T01:24:35.371Z,100130.44
2023-05-25T01:27:20.181Z,100128.97
2023-05-25T01:29:53.890Z,100127.41
2023-05-25T01:32:32.630Z,100129.38
2023-05-25T01:35:38.163Z,100136.53
2023-05-25T01:38:31.376Z,100140.81
2023-05-25T01:41:24.600Z,100137.50
2023-05-25T01:44:15.157Z,100146.22
2023-05-25T01:47:12.402Z,100135.25
2023-05-25T01:50:09.393Z,100142.22
2023-05-25T01:52:52.310Z,100145.84
2023-05-25T01:56:07.523Z,100145.22
2023-05-25T01:58:52.455Z,100135.16
2023-05-25T02:01:28.469Z,100137.03
2023-05-25T02:04:27.433Z,100137.13
2023-05-25T02:07:17.830Z,100141.75
2023-05-25T02:10:15.238Z,100134.13
2023-05-25T02:12:54.290Z,100130.16
2023-05-25T02:15:48.061Z,100135.56
2023-05-25T02:18:30.972Z,100133.13
2023-05-25T02:21:24.894Z,100133.25
2023-05-25T02:24:06.964Z,100132.47
2023-05-25T02:26:42.314Z,100136.81
2023-05-25T02:29:17.466Z,100140.22
2023-05-25T02:32:16.039Z,100141.25
2023-05-25T02:34:57.797Z,100133.69
2023-05-25T02:37:57.985Z,100135.59
2023-05-25T02:40:50.311Z,100124.75
2023-05-25T02:43:50.254Z,100126.69
2023-05-25T02:46:34.109Z,100122.59
2023-05-25T02:49:21.848Z,100129.53
2023-05-25T02:51:52.386Z,100126.06
2023-05-25T02:54:24.023Z,100123.47
2023-05-25T02:57:11.680Z,100125.28
2023-05-25T03:00:13.997Z,100122.31
2023-05-25T03:03:06.188Z,100124.44
2023-05-25T03:05:55.579Z,100139.44
2023-05-25T03:08:43.602Z,100146.56
2023-05-25T03:11:16.976Z,100147.91
2023-05-25T03:14:09.498Z,100145.56
2023-05-25T03:16:50.932Z,100148.25
2023-05-25T03:19:41.427Z,100151.94
2023-05-25T03:22:33.993Z,100159.72
2023-05-25T03:25:35.666Z,100146.94
2023-05-25T03:28:30.504Z,100146.03
2023-05-25T03:31:23.110Z,100145.25
2023-05-25T03:34:08.611Z,100142.66
2023-05-25T03:36:51.867Z,100141.88
2023-05-25T03:39:33.461Z,100144.56
2023-05-25T03:42:15.958Z,100144.56
2023-05-25T03:45:00.363Z,100141.88
2023-05-25T03:47:43.555Z,100141.78
2023-05-25T03:50:22.352Z,100152.09
2023-05-25T03:53:00.854Z,100156.25
2023-05-25T03:55:41.412Z,100153.53
2023-05-25T03:58:18.966Z,100155.94
2023-05-25T04:00:53.016Z,100156.66
2023-05-25T04:03:33.645Z,100160.03
2023-05-25T04:06:38.501Z,100171.00
2023-05-25T04:09:15.847Z,100168.25
2023-05-25T04:11:53.351Z,100178.38
2023-05-25T04:14:44.443Z,100180.72
2023-05-25T04:17:41.343Z,100175.38
2023-05-25T04:20:14.102Z,100181.13
2023-05-25T04:22:52.950Z,100188.72
2023-05-25T04:25:43.605Z,100192.00
2023-05-25T04:28:32.395Z,100198.69
2023-05-25T04:31:13.290Z,100200.19
2023-05-25T04:33:57.160Z,100194.06
2023-05-25T04:36:45.320Z,100195.63
2023-05-25T04:39:38.351Z,100192.78
2023-05-25T04:42:18.613Z,100194.25
2023-05-25T04:44:57.629Z,100190.59
2023-05-25T04:47:43.382Z,100191.38
2023-05-25T04:50:14.882Z,100193.81
2023-05-25T04:53:01.869Z,100201.31
2023-05-25T04:55:53.491Z,100209.72
2023-05-25T04:59:07.428Z,100210.34
2023-05-25T05:01:58.012Z,100205.72
2023-05-25T05:04:48.338Z,100202.88
2023-05-25T05:07:29.561Z,100202.59
2023-05-25T05:10:06.706Z,100204.16
2023-05-25T05:13:03.045Z,100204.81
2023-05-25T05:16:14.385Z,100205.41
2023-05-25T05:18:49.175Z,100203.38
2023-05-25T05:21:39.627Z,100204.91
2023-05-25T05:24:16.209Z,100201.16
2023-05-25T05:27:12.621Z,100205.16
2023-05-25T05:30:20.120Z,100205.66
2023-05-25T05:33:01.737Z,100206.91
2023-05-25T05:35:41.713Z,100200.53
2023-05-25T05:38:47.228Z,100212.31
2023-05-25T05:41:31.162Z,100198.22
2023-05-25T05:44:20.171Z,100198.84
2023-05-25T05:46:52.012Z,100189.03
2023-05-25T05:49:35.014Z,100193.78
2023-05-25T05:52:20.619Z,100189.16
2023-05-25T05:54:58.202Z,100199.00
2023-05-25T05:57:46.887Z,100194.16
2023-05-25T06:00:21.126Z,100184.91
2023-05-25T06:03:21.444Z,100192.22
2023-05-25T06:06:19.350Z,100188.22
2023-05-25T06:09:01.874Z,100199.78
2023-05-25T06:11:37.645Z,100198.41
2023-05-25T06:14:26.773Z,100195.28
2023-05-25T06:17:10.078Z,100201.75
2023-05-25T06:19:56.696Z,100205.63
2023-05-25T06:22:41.527Z,100217.03
2023-05-25T06:25:22.757Z,100210.38
2023-05-25T06:28:19.582Z,100209.97
2023-05-25T06:30:55.131Z,100219.06
2023-05-25T06:33:36.011Z,100216.91
2023-05-25T06:36:21.766Z,100223.38
2023-05-25T06:38:58.271Z,100231.56
2023-05-25T06:41:36.650Z,100232.31
2023-05-25T06:44:27.184Z,100226.06
2023-05-25T06:47:08.371Z,100225.72
2023-05-25T06:49:43.863Z,100222.06
2023-05-25T06:52:28.716Z,100226.88
2023-05-25T06:55:39.766Z,100229.72
2023-05-25T06:58:12.239Z,100228.50
2023-05-25T07:01:06.120Z,100230.59
2023-05-25T07:03:38.847Z,100224.31
2023-05-25T07:06:20.242Z,100229.38
2023-05-25T07:08:57.959Z,100221.53
2023-05-25T07:12:09.110Z,100227.28
2023-05-25T07:15:02.163Z,100226.94
2023-05-25T07:17:41.062Z,100213.63
2023-05-25T07:20:35.712Z,100218.31
2023-05-25T07:23:15.246Z,100215.19
2023-05-25T07:25:57.081Z,100216.50
2023-05-25T07:28:49.892Z,100215.06
2023-05-25T07:31:44.368Z,100221.59
2023-05-25T07:34:20.924Z,100205.44
2023-05-25T07:36:54.826Z,100216.97
2023-05-25T07:40:05.793Z,100213.09
2023-05-25T07:42:47.702Z,100211.69
2023-05-25T07:45:47.703Z,100213.47
2023-05-25T07:48:49.287Z,100218.44
2023-05-25T07:51:26.922Z,100228.91
2023-05-25T07:54:12.719Z,100229.75
2023-05-25T07:57:01.890Z,100226.28
2023-05-25T07:59:46.556Z,100225.25
2023-05-25T08:03:02.179Z,100220.31
2023-05-25T08:05:36.844Z,100224.88
2023-05-25T08:08:17.986Z,100218.50
2023-05-25T08:11:00.037Z,100217.09
2023-05-25T08:13:46.134Z,100221.56
2023-05-25T08:16:53.520Z,100214.78
2023-05-25T08:19:58.374Z,100219.00
2023-05-25T08:22:44.847Z,100216.53
2023-05-25T08:25:18.945Z,100219.09
2023-05-25T08:28:22.637Z,100218.47
2023-05-25T08:30:54.485Z,100228.50
2023-05-25T08:33:45.084Z,100221.84
2023-05-25T08:36:29.201Z,100221.22
2023-05-25T08:39:05.056Z,100225.75
2023-05-25T08:41:59.521Z,100236.47
2023-05-25T08:44:57.397Z,100228.97
2023-05-25T08:47:47.635Z,100232.09
2023-05-25T08:50:47.531Z,100238.34
2023-05-25T08:53:56.421Z,100228.91
2023-05-25T08:56:36.898Z,100239.47
2023-05-25T08:59:33.064Z,100231.63
2023-05-25T09:02:30.702Z,100217.53
2023-05-25T09:05:13.515Z,100218.88
2023-05-25T09:07:50.020Z,100218.44
2023-05-25T09:10:39.643Z,100223.00
2023-05-25T09:13:22.543Z,100219.03
2023-05-25T09:16:11.675Z,100228.00
2023-05-25T09:19:05.339Z,100229.38
2023-05-25T09:22:03.117Z,100232.97
2023-05-25T09:25:01.193Z,100225.16
2023-05-25T09:27:46.853Z,100227.84
2023-05-25T09:30:20.256Z,100219.31
2023-05-25T09:33:15.386Z,100215.66
2023-05-25T09:35:53.433Z,100219.59
2023-05-25T09:38:26.252Z,100215.81
2023-05-25T09:41:09.531Z,100218.91
2023-05-25T09:44:02.137Z,100208.81
2023-05-25T09:47:15.526Z,100226.75
2023-05-25T09:49:50.425Z,100220.69
2023-05-25T09:52:41.571Z,100224.50
2023-05-25T09:55:19.513Z,100226.78
2023-05-25T09:58:17.567Z,100228.22
2023-05-25T10:01:27.830Z,100226.31
2023-05-25T10:04:10.988Z,100231.78
2023-05-25T10:06:57.093Z,100235.63
2023-05-25T10:09:41.456Z,100232.66
2023-05-25T10:12:27.299Z,100236.00
2023-05-25T10:15:00.508Z,100233.03
2023-05-25T10:17:57.845Z,100239.09
2023-05-25T10:20:48.601Z,100238.16
2023-05-25T10:23:43.316Z,100238.19
2023-05-25T10:26:22.302Z,100254.59
2023-05-25T10:29:20.327Z,100233.63
2023-05-25T10:32:08.069Z,100229.59
2023-05-25T10:34:54.882Z,100225.28
2023-05-25T10:37:55.556Z,100229.41
2023-05-25T10:40:35.723Z,100228.81
2023-05-25T10:43:14.875Z,100227.59
2023-05-25T10:46:01.834Z,100223.28
2023-05-25T10:49:01.043Z,100216.84
2023-05-25T10:51:51.570Z,100216.06
2023-05-25T10:54:23.507Z,100211.63
2023-05-25T10:57:14.871Z,100208.16
2023-05-25T10:59:52.094Z,100217.22
2023-05-25T11:02:25.270Z,100208.31
2023-05-25T11:05:38.626Z,100214.91
2023-05-25T11:08:57.906Z,100216.34
2023-05-25T11:12:09.121Z,100212.22
2023-05-25T11:14:44.001Z,100217.44
2023-05-25T11:17:49.195Z,100208.22
2023-05-25T11:20:30.635Z,100215.50
2023-05-25T11:23:29.066Z,100211.16
2023-05-25T11:26:24.556Z,100221.03
2023-05-25T11:29:29.292Z,100211.84
2023-05-25T11:32:24.581Z,100204.41
2023-05-25T11:35:03.989Z,100208.41
2023-05-25T11:38:00.011Z,100202.63
2023-05-25T11:40:33.970Z,100194.25
2023-05-25T11:43:20.166Z,100187.56
2023-05-25T11:46:19.194Z,100188.53
2023-05-25T11:48:59.980Z,100193.84
2023-05-25T11:51:47.276Z,100183.63
2023-05-25T11:54:35.872Z,100178.41
2023-05-25T11:57:17.130Z,100176.47
2023-05-25T11:59:53.714Z,100177.41
2023-05-25T12:02:42.895Z,100181.44
2023-05-25T12:05:18.756Z,100183.38
2023-05-25T12:08:03.856Z,100176.22
2023-05-25T12:10:46.541Z,100171.91
2023-05-25T12:13:22.084Z,100164.56
2023-05-25T12:16:05.855Z,100165.16
2023-05-25T12:18:57.671Z,100156.00
2023-05-25T12:21:54.264Z,100153.19
2023-05-25T12:24:28.534Z,100165.06
2023-05-25T12:27:26.425Z,100162.25
2023-05-25T12:30:10.510Z,100151.94
2023-05-25T12:33:05.754Z,100148.53
2023-05-25T12:35:57.028Z,100139.88
2023-05-25T12:39:01.847Z,100149.38
2023-05-25T12:41:58.335Z,100144.34
2023-05-25T12:44:53.663Z,100138.78
2023-05-25T12:47:30.985Z,100129.97
2023-05-25T12:50:24.081Z,100125.06
2023-05-25T12:53:49.263Z,100133.34
2023-05-25T12:56:21.682Z,100123.56
2023-05-25T12:59:19.149Z,100121.78
2023-05-25T13:02:04.099Z,100128.56
2023-05-25T13:04:45.951Z,100139.63
2023-05-25T13:07:19.056Z,100135.13
2023-05-25T13:09:53.899Z,100134.56
2023-05-25T13:12:46.759Z,100133.41
2023-05-25T13:15:30.125Z,100133.41
2023-05-25T13:18:11.531Z,100134.94
2023-05-25T13:21:17.668Z,100130.97
2023-05-25T13:23:57.164Z,100132.91
2023-05-25T13:26:58.336Z,100129.53
2023-05-25T13:29:32.185Z,100132.66
2023-05-25T13:32:24.836Z,100127.34
2023-05-25T13:35:19.644Z,100122.34
2023-05-25T13:38:03.121Z,100115.00
2023-05-25T13:40:50.514Z,100120.97
2023-05-25T13:43:50.220Z,100118.00
2023-05-25T13:46:34.046Z,100119.56
2023-05-25T13:49:20.265Z,100121.34
2023-05-25T13:52:04.206Z,100111.66
2023-05-25T13:54:48.833Z,100119.91
2023-05-25T13:57:45.071Z,100112.13
2023-05-25T14:00:35.180Z,100113.56
2023-05-25T14:03:16.105Z,100108.59
2023-05-25T14:06:16.830Z,100109.53
2023-05-25T14:08:57.885Z,100107.84
2023-05-25T14:11:54.066Z,100103.03
2023-05-25T14:14:32.784Z,100099.53
2023-05-25T14:17:27.410Z,100099.13
2023-05-25T14:20:16.307Z,100102.91
2023-05-25T14:22:58.655Z,100109.72
2023-05-25T14:25:55.339Z,100105.78
2023-05-25T14:28:42.717Z,100107.00
2023-05-25T14:31:14.760Z,100092.75
2023-05-25T14:34:12.943Z,100081.72
2023-05-25T14:37:01.312Z,100068.91
2023-05-25T14:39:51.517Z,100078.34
2023-05-25T14:42:50.780Z,100080.16
2023-05-25T14:45:33.212Z,100080.59
2023-05-25T14:48:24.273Z,100069.41
2023-05-25T14:51:04.339Z,100082.28
2023-05-25T14:53:35.934Z,100080.75
2023-05-25T14:56:11.328Z,100090.13
2023-05-25T14:58:47.128Z,100086.81
2023-05-25T15:01:30.826Z,100074.47
2023-05-25T15:04:14.723Z,100075.56
2023-05-25T15:07:10.511Z,100070.03
2023-05-25T15:10:09.739Z,100070.84
2023-05-25T15:13:13.347Z,100074.50
2023-05-25T15:16:14.625Z,100076.59
2023-05-25T15:18:51.458Z,100069.50
2023-05-25T15:21:29.851Z,100077.16
2023-05-25T15:24:14.266Z,100075.16
2023-05-25T15:27:09.801Z,100080.28
2023-05-25T15:30:05.957Z,100072.19
2023-05-25T15:32:38.334Z,100066.97
2023-05-25T15:35:11.590Z,100075.75
2023-05-25T15:38:04.232Z,100066.84
2023-05-25T15:41:32.183Z,100059.72
2023-05-25T15:44:30.657Z,100071.34
2023-05-25T15:47:24.406Z,100061.50
2023-05-25T15:50:05.080Z,100065.50
2023-05-25T15:52:57.944Z,100058.81
2023-05-25T15:55:32.518Z,100058.16
2023-05-25T15:59:05.555Z,100057.38
2023-05-25T16:01:57.648Z,100065.06
2023-05-25T16:04:28.414Z,100059.63
2023-05-25T16:07:10.545Z,100065.69
2023-05-25T16:09:43.940Z,100069.13
2023-05-25T16:12:28.962Z,100060.91
2023-05-25T16:15:02.893Z,100058.31
2023-05-25T16:17:49.482Z,100062.16
2023-05-25T16:20:22.971Z,100055.28
2023-05-25T16:23:10.990Z,100056.78
2023-05-25T16:26:07.240Z,100056.22
2023-05-25T16:28:49.441Z,100062.75
2023-05-25T16:31:39.684Z,100062.16
2023-05-25T16:34:31.811Z,100064.84
2023-05-25T16:37:12.568Z,100059.03
2023-05-25T16:40:05.078Z,100064.75
2023-05-25T16:42:53.466Z,100061.13
2023-05-25T16:45:44.495Z,100059.94
2023-05-25T16:48:26.708Z,100056.53
2023-05-25T16:51:15.420Z,100054.75
2023-05-25T16:54:04.767Z,100054.75
2023-05-25T16:56:41.219Z,100048.63
2023-05-25T16:59:26.073Z,100060.97
2023-05-25T17:02:00.905Z,100064.69
2023-05-25T17:04:41.885Z,100057.03
2023-05-25T17:07:33.249Z,100057.47
2023-05-25T17:10:10.744Z,100071.00
2023-05-25T17:12:53.945Z,100061.53
2023-05-25T17:15:33.620Z,100057.91
2023-05-25T17:18:18.345Z,100070.94
2023-05-25T17:21:23.502Z,100063.47
2023-05-25T17:24:03.969Z,100065.75
2023-05-25T17:26:50.457Z,100077.75
2023-05-25T17:29:31.154Z,100069.47
2023-05-25T17:32:15.030Z,100070.28
2023-05-25T17:34:49.967Z,100068.53
2023-05-25T17:37:35.294Z,100070.41
2023-05-25T17:40:38.232Z,100067.28
2023-05-25T17:43:08.944Z,100064.72
2023-05-25T17:45:50.167Z,100076.09
2023-05-25T17:48:20.565Z,100072.00
2023-05-25T17:51:07.054Z,100075.72
2023-05-25T17:53:43.001Z,100070.13
2023-05-25T17:56:14.669Z,100072.09
2023-05-25T17:58:49.916Z,100081.47
2023-05-25T18:01:35.785Z,100075.91
2023-05-25T18:04:06.661Z,100082.16
2023-05-25T18:06:39.157Z,100078.06
2023-05-25T18:09:24.636Z,100090.94
2023-05-25T18:12:15.173Z,100094.00
2023-05-25T18:15:03.799Z,100092.91
2023-05-25T18:17:54.143Z,100098.97
2023-05-25T18:20:24.650Z,100094.56
2023-05-25T18:23:08.697Z,100107.03
2023-05-25T18:26:12.787Z,100111.41
2023-05-25T18:29:04.067Z,100106.59
2023-05-25T18:31:51.474Z,100111.28
2023-05-25T18:34:35.387Z,100113.72
2023-05-25T18:37:10.611Z,100106.28
2023-05-25T18:39:57.944Z,100115.91
2023-05-25T18:42:33.539Z,100115.53
2023-05-25T18:45:09.600Z,100110.97
2023-05-25T18:47:47.571Z,100123.72
2023-05-25T18:50:35.356Z,100124.78
2023-05-25T18:53:10.210Z,100123.75
2023-05-25T18:55:40.443Z,100129.34
2023-05-25T18:58:54.473Z,100128.16
2023-05-25T19:01:38.666Z,100128.81
2023-05-25T19:04:25.569Z,100130.78
2023-05-25T19:07:21.725Z,100126.47
2023-05-25T19:10:03.003Z,100125.09
2023-05-25T19:12:34.802Z,100123.94
2023-05-25T19:15:29.766Z,100144.78
2023-05-25T19:18:21.524Z,100152.38
2023-05-25T19:21:07.268Z,100151.88
2023-05-25T19:23:45.275Z,100163.59
2023-05-25T19:26:43.431Z,100163.94
2023-05-25T19:29:33.685Z,100171.88
2023-05-25T19:32:29.653Z,100171.81
2023-05-25T19:35:01.157Z,100175.66
2023-05-25T19:37:47.860Z,100178.94
2023-05-25T19:40:33.076Z,100171.13
2023-05-25T19:43:09.808Z,100182.63
2023-05-25T19:45:54.843Z,100187.69
2023-05-25T19:48:45.110Z,100178.91
2023-05-25T19:51:19.672Z,100183.94
2023-05-25T19:54:12.138Z,100174.03
2023-05-25T19:56:50.276Z,100179.22
2023-05-25T19:59:40.530Z,100185.44
2023-05-25T20:02:36.058Z,100193.06
2023-05-25T20:05:27.126Z,100188.56
2023-05-25T20:08:05.129Z,100195.50
2023-05-25T20:10:44.540Z,100190.28
2023-05-25T20:13:32.244Z,100196.00
2023-05-25T20:16:15.550Z,100205.28
2023-05-25T20:19:07.934Z,100213.13
2023-05-25T20:21:49.709Z,100202.41
2023-05-25T20:24:25.402Z,100208.94
2023-05-25T20:27:26.861Z,100209.66
2023-05-25T20:30:08.344Z,100214.75
2023-05-25T20:33:09.133Z,100217.25
2023-05-25T20:35:47.148Z,100209.97
2023-05-25T20:38:33.009Z,100213.91
2023-05-25T20:41:08.964Z,100212.56
2023-05-25T20:43:47.206Z,100214.16
2023-05-25T20:46:38.104Z,100218.19
2023-05-25T20:49:40.201Z,100221.28
2023-05-25T20:52:29.663Z,100224.44
2023-05-25T20:55:54.073Z,100229.72
2023-05-25T20:58:42.876Z,100231.03
2023-05-25T21:01:31.395Z,100235.88
2023-05-25T21:04:18.048Z,100230.25
2023-05-25T21:06:48.605Z,100232.13
2023-05-25T21:09:54.102Z,100238.63
2023-05-25T21:12:40.033Z,100245.88
2023-05-25T21:15:28.771Z,100249.66
2023-05-25T21:18:24.806Z,100253.31
2023-05-25T21:20:58.816Z,100251.03
2023-05-25T21:23:40.060Z,100249.66
2023-05-25T21:26:22.604Z,100244.16
2023-05-25T21:29:26.806Z,100258.69
2023-05-25T21:32:07.906Z,100259.00
2023-05-25T21:34:54.376Z,100262.03
2023-05-25T21:37:38.975Z,100265.91
2023-05-25T21:40:24.191Z,100262.16
2023-05-25T21:43:14.800Z,100267.59
2023-05-25T21:46:26.129Z,100262.69
2023-05-25T21:49:00.668Z,100268.97
2023-05-25T21:51:44.859Z,100268.13
2023-05-25T21:54:40.853Z,100264.97
2023-05-25T21:57:25.853Z,100260.50
2023-05-25T22:00:13.978Z,100264.28
2023-05-25T22:03:13.204Z,100268.44
2023-05-25T22:05:52.551Z,100270.69
2023-05-25T22:08:34.357Z,100269.09
2023-05-25T22:11:25.086Z,100270.16
2023-05-25T22:14:16.248Z,100274.63
2023-05-25T22:16:58.053Z,100272.13
2023-05-25T22:20:03.131Z,100275.03
2023-05-25T22:22:38.652Z,100273.78
2023-05-25T22:25:11.386Z,100274.19
2023-05-25T22:27:56.984Z,100272.53
2023-05-25T22:30:30.717Z,100284.19
2023-05-25T22:33:09.389Z,100289.91
2023-05-25T22:35:41.082Z,100291.03
2023-05-25T22:38:22.906Z,100291.63
2023-05-25T22:41:06.557Z,100289.53
2023-05-25T22:43:49.622Z,100288.06
2023-05-25T22:46:32.836Z,100292.53
2023-05-25T22:49:24.959Z,100291.06
2023-05-25T22:52:42.523Z,100295.81
2023-05-25T22:55:33.438Z,100290.16
2023-05-25T22:58:37.601Z,100296.66
2023-05-25T23:01:31.775Z,100303.09
2023-05-25T23:04:07.488Z,100307.56
2023-05-25T23:07:05.125Z,100308.59
2023-05-25T23:09:45.529Z,100301.81
2023-05-25T23:12:32.776Z,100303.88
2023-05-25T23:15:20.259Z,100301.63
2023-05-25T23:18:32.288Z,100313.16
2023-05-25T23:21:07.598Z,100308.31
2023-05-25T23:23:59.988Z,100310.22
2023-05-25T23:26:35.801Z,100307.88
2023-05-25T23:29:32.664Z,100310.75
2023-05-25T23:32:20.822Z,100311.31
2023-05-25T23:35:22.108Z,100309.19
2023-05-25T23:38:00.541Z,100305.28
2023-05-25T23:40:40.569Z,100317.63
2023-05-25T23:43:19.562Z,100321.34
2023-05-25T23:46:06.726Z,100314.75
2023-05-25T23:49:03.047Z,100316.03
2023-05-25T23:51:45.335Z,100322.09
2023-05-25T23:54:18.852Z,100320.47
2023-05-25T23:57:11.019Z,100317.22
2023-05-25T23:59:52.847Z,100323.50
